Time;durP1;ratioP1;P1;durP2;ratioP2;P2;SDS_P1;SDS_P2;PMS_P1;PMS_P2;Temp;Humidity;BMP_temperature;BMP_pressure;BME280_temperature;BME280_humidity;BME280_pressure;Samples;Min_cycle;Max_cycle;Signal;HPM_P1;HPM_P2
2021/09/30 00:01:27;;;;;;;5.30;3.65;;;;;;;10.80;87.99;101814.69;1673591;83;21077;-71
2021/09/30 00:03:53;;;;;;;5.90;3.95;;;;;;;10.79;86.73;101812.53;1667107;83;21040;-70
2021/09/30 00:06:20;;;;;;;9.58;4.30;;;;;;;10.55;88.99;101813.56;1671379;83;21023;-71
2021/09/30 00:08:48;;;;;;;8.08;4.28;;;;;;;10.39;91.30;101808.48;1668642;84;21081;-70
2021/09/30 00:11:24;;;;;;;9.78;4.22;;;;;;;10.31;93.37;101806.27;1668762;84;20901;-70
2021/09/30 00:13:54;;;;;;;7.67;3.80;;;;;;;10.48;91.45;101810.22;1648196;84;20917;-71
2021/09/30 00:32:43;;;;;;;9.30;5.83;;;;;;;10.43;87.39;101817.66;1659979;84;21091;-72
2021/09/30 00:35:21;;;;;;;7.12;4.67;;;;;;;10.37;85.49;101810.89;1662988;85;21149;-69
2021/09/30 00:40:25;;;;;;;6.53;4.53;;;;;;;9.66;95.67;101816.52;1670142;84;22411;-70
2021/09/30 00:45:54;;;;;;;6.47;4.25;;;;;;;9.96;97.48;101811.59;1677637;83;21010;-71
2021/09/30 01:18:05;;;;;;;7.05;4.17;;;;;;;10.26;94.77;101821.01;1664743;85;21492;-71
2021/09/30 01:22:39;;;;;;;9.50;4.60;;;;;;;10.31;90.79;101824.03;1678101;83;22342;-70
2021/09/30 01:25:56;;;;;;;6.17;3.20;;;;;;;10.37;90.52;101829.95;1678949;83;21006;-72
2021/09/30 01:46:46;;;;;;;6.28;3.98;;;;;;;10.58;80.36;101837.56;1678110;83;22484;-69
2021/09/30 02:28:17;;;;;;;9.08;5.15;;;;;;;8.98;100.00;101861.55;1662926;85;21536;-70
2021/09/30 02:31:13;;;;;;;6.35;4.17;;;;;;;8.71;100.00;101861.30;1677735;83;21054;-69
2021/09/30 02:39:20;;;;;;;8.13;4.58;;;;;;;8.69;100.00;101860.14;1661208;84;21195;-72
2021/09/30 03:00:45;;;;;;;9.03;6.42;;;;;;;8.59;100.00;101871.45;1637804;81;21070;-71
2021/09/30 03:03:12;;;;;;;12.37;5.97;;;;;;;8.55;100.00;101881.77;1686115;83;21069;-72
2021/09/30 03:05:40;;;;;;;12.47;7.00;;;;;;;8.36;100.00;101883.27;1701828;82;21119;-71
2021/09/30 03:08:06;;;;;;;8.73;6.60;;;;;;;8.53;100.00;101885.32;1704431;82;20997;-71
2021/09/30 03:10:33;;;;;;;12.68;9.48;;;;;;;8.68;100.00;101887.09;1701775;82;20980;-71
2021/09/30 03:13:00;;;;;;;12.10;8.93;;;;;;;8.63;100.00;101884.53;1720086;82;21037;-71
2021/09/30 03:15:36;;;;;;;10.75;6.80;;;;;;;8.82;100.00;101885.91;1684500;82;20983;-72
2021/09/30 03:20:50;;;;;;;9.15;5.65;;;;;;;8.75;100.00;101882.17;1728549;80;21018;-71
2021/09/30 03:23:23;;;;;;;11.97;7.53;;;;;;;8.70;100.00;101885.66;1720211;80;20892;-71
2021/09/30 03:25:52;;;;;;;9.35;6.53;;;;;;;8.64;100.00;101890.09;1742443;80;20948;-71
2021/09/30 03:28:23;;;;;;;9.40;6.08;;;;;;;8.85;100.00;101886.95;1720167;81;21544;-71
2021/09/30 03:30:52;;;;;;;8.78;5.33;;;;;;;8.81;100.00;101891.25;1744083;80;21134;-72
2021/09/30 03:33:18;;;;;;;7.45;4.90;;;;;;;8.77;100.00;101886.78;1747064;80;21065;-70
2021/09/30 03:35:47;;;;;;;7.33;4.85;;;;;;;8.80;100.00;101888.31;1745459;80;20978;-68
2021/09/30 03:38:14;;;;;;;8.13;4.97;;;;;;;8.84;100.00;101893.11;1741262;80;21074;-67
2021/09/30 03:40:41;;;;;;;6.83;4.55;;;;;;;9.11;100.00;101896.89;1743694;81;21082;-72
2021/09/30 03:43:09;;;;;;;5.70;4.22;;;;;;;9.62;100.00;101890.20;1739929;80;21714;-69
2021/09/30 03:45:36;;;;;;;6.25;4.00;;;;;;;9.96;100.00;101895.80;1738495;79;21006;-65
2021/09/30 03:48:05;;;;;;;7.12;4.03;;;;;;;10.27;100.00;101898.25;1732326;80;20977;-65
2021/09/30 03:53:19;;;;;;;5.17;3.80;;;;;;;11.69;100.00;101895.66;1702911;80;27374;-67
2021/09/30 03:56:02;;;;;;;7.40;4.25;;;;;;;12.45;95.31;101891.66;1738831;79;21239;-67
2021/09/30 04:01:10;;;;;;;8.70;4.80;;;;;;;13.79;78.69;101887.33;1706444;82;21046;-66
2021/09/30 04:03:38;;;;;;;6.97;4.30;;;;;;;14.13;69.86;101888.45;1706501;82;21583;-65
2021/09/30 04:06:04;;;;;;;7.93;4.80;;;;;;;14.79;62.63;101888.60;1726903;82;21049;-71
2021/09/30 04:08:32;;;;;;;6.67;3.93;;;;;;;15.05;59.93;101887.50;1708287;81;21420;-66
2021/09/30 04:11:01;;;;;;;11.93;5.23;;;;;;;15.84;57.49;101886.82;1714319;83;21282;-68
2021/09/30 04:13:28;;;;;;;9.13;5.80;;;;;;;16.25;55.61;101880.67;1711190;83;21350;-69
2021/09/30 04:15:56;;;;;;;9.30;5.43;;;;;;;16.84;53.12;101877.71;1715111;82;21343;-70
2021/09/30 04:18:23;;;;;;;10.00;5.60;;;;;;;17.31;51.68;101879.02;1712455;82;21330;-71
2021/09/30 04:20:50;;;;;;;10.90;6.27;;;;;;;17.85;49.16;101883.81;1707792;82;21755;-70
2021/09/30 04:23:17;;;;;;;12.07;6.77;;;;;;;18.23;47.12;101879.80;1702160;83;20899;-68
2021/09/30 04:25:45;;;;;;;9.17;5.83;;;;;;;18.50;45.46;101882.59;1713748;83;20955;-67
2021/09/30 04:28:14;;;;;;;8.43;6.07;;;;;;;18.89;43.96;101887.76;1678035;85;20920;-70
2021/09/30 04:30:42;;;;;;;7.60;5.30;;;;;;;19.27;43.02;101888.57;1668336;85;21489;-69
2021/09/30 04:33:13;;;;;;;8.23;6.00;;;;;;;19.80;41.44;101886.00;1653363;85;21172;-69
2021/09/30 04:35:40;;;;;;;9.07;6.70;;;;;;;20.14;40.30;101886.27;1702698;83;20939;-70
2021/09/30 04:38:10;;;;;;;11.80;6.53;;;;;;;20.32;39.53;101893.57;1698291;83;20980;-70
2021/09/30 04:40:36;;;;;;;10.43;6.40;;;;;;;20.35;38.48;101894.48;1713426;83;21011;-70
2021/09/30 04:43:04;;;;;;;10.10;6.80;;;;;;;20.21;38.58;101900.31;1706041;82;21102;-70
2021/09/30 04:45:32;;;;;;;8.43;6.10;;;;;;;20.12;38.17;101901.05;1689547;83;21134;-71
2021/09/30 04:48:01;;;;;;;9.93;5.60;;;;;;;19.70;37.85;101906.27;1702448;83;20952;-71
2021/09/30 04:50:28;;;;;;;7.57;5.47;;;;;;;18.98;38.29;101909.05;1699945;83;20948;-71
2021/09/30 04:53:00;;;;;;;11.13;8.00;;;;;;;18.44;39.07;101908.45;1712346;83;21007;-71
2021/09/30 04:55:23;;;;;;;9.73;7.33;;;;;;;17.26;40.52;101918.61;1699774;83;21008;-71
2021/09/30 04:57:50;;;;;;;10.50;6.57;;;;;;;16.67;41.81;101916.08;1712248;83;21140;-71
2021/09/30 05:00:17;;;;;;;7.87;5.50;;;;;;;16.43;42.58;101915.83;1709917;82;20983;-71
2021/09/30 05:02:52;;;;;;;9.60;6.20;;;;;;;16.03;43.04;101924.45;1714746;81;20939;-69
2021/09/30 05:05:19;;;;;;;8.30;6.07;;;;;;;15.42;44.27;101932.77;1705288;82;21901;-69
2021/09/30 05:07:47;;;;;;;9.20;6.07;;;;;;;15.15;45.14;101931.92;1712194;82;21030;-68
2021/09/30 05:10:18;;;;;;;8.47;5.83;;;;;;;14.78;46.41;101928.98;1700919;81;21645;-69
2021/09/30 05:12:42;;;;;;;8.53;5.17;;;;;;;14.70;47.24;101932.95;1703054;81;21694;-68
2021/09/30 05:15:10;;;;;;;6.03;4.00;;;;;;;14.69;47.65;101930.47;1708325;82;21766;-68
2021/09/30 05:17:40;;;;;;;9.03;4.43;;;;;;;14.71;48.16;101935.89;1712647;81;21894;-68
2021/09/30 05:20:12;;;;;;;7.57;4.53;;;;;;;14.75;48.54;101931.12;1712064;82;21985;-68
2021/09/30 05:22:40;;;;;;;9.10;4.60;;;;;;;14.93;49.12;101933.52;1704022;82;21289;-68
2021/09/30 05:25:08;;;;;;;9.30;4.00;;;;;;;14.94;49.15;101931.21;1707871;81;21199;-67
2021/09/30 05:27:34;;;;;;;7.33;4.30;;;;;;;14.73;49.21;101939.64;1712630;81;21780;-67
2021/09/30 05:30:01;;;;;;;6.63;4.63;;;;;;;14.87;49.21;101943.38;1712893;81;21288;-69
2021/09/30 05:32:30;;;;;;;6.80;5.07;;;;;;;14.94;49.35;101939.09;1711050;81;21378;-67
2021/09/30 05:34:59;;;;;;;7.47;4.60;;;;;;;15.24;49.12;101937.47;1706355;82;22007;-68
2021/09/30 05:37:29;;;;;;;8.00;5.03;;;;;;;15.21;49.88;101941.25;1710710;81;21970;-68
2021/09/30 05:39:56;;;;;;;8.20;4.50;;;;;;;15.28;49.35;101940.08;1706126;81;21292;-69
2021/09/30 05:42:25;;;;;;;6.73;4.20;;;;;;;15.39;49.30;101942.81;1714818;82;21202;-70
2021/09/30 05:44:54;;;;;;;;;;;;;;;15.32;48.54;101945.30;1716784;82;21287;-68
2021/09/30 05:47:21;;;;;;;7.90;4.80;;;;;;;15.50;48.79;101941.10;1710597;81;21142;-69
2021/09/30 05:49:48;;;;;;;9.43;4.30;;;;;;;15.39;49.00;101939.69;1715101;81;21159;-71
2021/09/30 05:52:25;;;;;;;5.70;3.60;;;;;;;15.88;49.04;101941.19;1699661;81;21402;-69
2021/09/30 05:55:09;;;;;;;6.13;3.47;;;;;;;15.88;49.04;101941.19;1710438;81;21319;-68
2021/09/30 05:57:36;;;;;;;4.87;3.37;;;;;;;16.23;49.21;101943.67;1714036;81;21543;-70
2021/09/30 06:06:16;;;;;;;6.10;3.70;;;;;;;18.19;44.18;101935.31;1691207;81;21708;-70
2021/09/30 06:10:59;;;;;;;5.10;3.37;;;;;;;19.02;41.35;101934.06;1701662;83;20970;-70
2021/09/30 06:13:31;;;;;;;7.83;3.30;;;;;;;19.57;40.30;101937.44;1710898;82;21125;-68
2021/09/30 06:15:53;;;;;;;4.80;3.47;;;;;;;20.12;39.40;101936.78;1699214;82;21035;-67
2021/09/30 06:18:19;;;;;;;4.77;3.50;;;;;;;20.61;38.55;101934.17;1711442;81;21537;-68
2021/09/30 06:20:50;;;;;;;7.10;4.43;;;;;;;20.95;37.82;101932.22;1705881;81;20966;-68
2021/09/30 06:23:18;;;;;;;5.57;3.73;;;;;;;21.60;36.54;101926.77;1710811;83;21065;-68
2021/09/30 06:25:44;;;;;;;8.10;4.70;;;;;;;22.15;35.41;101937.55;1711366;81;21141;-68
2021/09/30 06:28:12;;;;;;;5.40;3.80;;;;;;;22.25;34.02;101931.73;1709175;82;20924;-68
2021/09/30 06:30:38;;;;;;;5.93;4.07;;;;;;;22.34;33.73;101933.06;1708830;82;21043;-68
2021/09/30 06:33:11;;;;;;;6.60;3.67;;;;;;;22.33;33.24;101934.11;1712192;81;21051;-68
2021/09/30 06:35:56;;;;;;;7.03;4.20;;;;;;;22.54;32.84;101935.01;1704930;83;21433;-68
2021/09/30 06:38:23;;;;;;;5.80;3.57;;;;;;;22.49;32.96;101936.17;1711885;82;21212;-68
2021/09/30 06:40:51;;;;;;;6.07;4.43;;;;;;;22.52;32.86;101934.41;1706104;82;20935;-69
2021/09/30 06:43:18;;;;;;;6.07;4.00;;;;;;;22.61;32.11;101940.23;1715588;81;21101;-68
2021/09/30 06:46:04;;;;;;;6.70;3.53;;;;;;;22.38;31.99;101939.56;1707453;81;21528;-69
2021/09/30 06:48:35;;;;;;;6.60;3.90;;;;;;;22.64;31.67;101945.63;1712042;81;21078;-69
2021/09/30 06:51:04;;;;;;;6.70;5.00;;;;;;;22.95;31.06;101944.66;1707211;81;21395;-68
2021/09/30 06:53:33;;;;;;;6.70;4.60;;;;;;;23.12;30.85;101948.86;1712160;81;20996;-68
2021/09/30 06:56:08;;;;;;;6.40;3.47;;;;;;;22.87;30.86;101949.73;1706478;82;21402;-69
2021/09/30 06:58:54;;;;;;;5.73;3.70;;;;;;;22.95;30.78;101949.45;1705684;83;21566;-68
2021/09/30 07:01:40;;;;;;;6.07;3.47;;;;;;;22.92;31.08;101952.59;1703007;81;21587;-69
2021/09/30 07:04:26;;;;;;;8.03;3.50;;;;;;;23.21;30.89;101947.49;1713243;81;21105;-69
2021/09/30 07:07:04;;;;;;;8.90;3.10;;;;;;;23.39;30.26;101950.62;1675090;83;21024;-68
2021/09/30 07:09:33;;;;;;;6.10;2.83;;;;;;;23.31;30.18;101948.58;1711615;81;21525;-70
2021/09/30 07:12:00;;;;;;;6.90;3.33;;;;;;;23.46;29.91;101949.48;1712293;81;21144;-68
2021/09/30 07:14:27;;;;;;;4.67;3.23;;;;;;;23.74;29.43;101946.20;1707995;82;20939;-68
2021/09/30 07:16:54;;;;;;;8.40;3.57;;;;;;;23.68;29.29;101951.14;1699709;82;21129;-68
2021/09/30 07:19:22;;;;;;;11.27;3.33;;;;;;;23.62;29.30;101948.54;1714333;81;21089;-71
2021/09/30 07:21:51;;;;;;;7.70;4.53;;;;;;;23.51;29.53;101948.28;1688894;83;21494;-68
2021/09/30 07:24:18;;;;;;;6.33;4.07;;;;;;;23.35;29.55;101956.92;1708798;82;21031;-69
2021/09/30 07:26:45;;;;;;;5.30;3.53;;;;;;;23.71;29.09;101949.84;1704645;81;21113;-69
2021/09/30 07:29:12;;;;;;;4.83;3.20;;;;;;;23.97;29.01;101957.40;1698540;82;22610;-69
2021/09/30 07:31:39;;;;;;;6.00;3.57;;;;;;;24.28;27.95;101951.42;1714885;82;20955;-69
2021/09/30 07:34:11;;;;;;;4.70;3.10;;;;;;;24.30;27.95;101951.21;1715703;81;20990;-69
2021/09/30 07:36:36;;;;;;;5.20;3.30;;;;;;;24.06;27.52;101946.42;1707265;83;21500;-68
2021/09/30 07:39:03;;;;;;;10.27;2.90;;;;;;;24.13;27.85;101948.42;1711566;82;21070;-68
2021/09/30 07:41:29;;;;;;;6.20;3.07;;;;;;;23.54;28.84;101945.16;1714028;81;21158;-70
2021/09/30 07:43:56;;;;;;;6.63;3.10;;;;;;;23.59;28.07;101943.66;1708247;81;21382;-72
2021/09/30 07:46:22;;;;;;;5.30;2.97;;;;;;;23.85;27.84;101948.59;1713489;82;21089;-74
2021/09/30 07:48:49;;;;;;;7.47;3.00;;;;;;;24.06;27.43;101938.43;1713559;81;20931;-69
2021/09/30 07:51:16;;;;;;;6.37;2.90;;;;;;;24.13;27.34;101943.09;1709874;83;20875;-71
2021/09/30 07:53:43;;;;;;;6.00;3.20;;;;;;;24.27;27.56;101936.48;1709683;81;21536;-71
2021/09/30 07:56:10;;;;;;;4.33;2.57;;;;;;;24.38;26.64;101933.00;1714859;82;21064;-68
2021/09/30 07:58:37;;;;;;;5.30;3.50;;;;;;;24.37;26.69;101939.38;1687099;82;21044;-67
2021/09/30 08:01:03;;;;;;;5.00;2.73;;;;;;;24.25;26.88;101929.27;1713872;81;20999;-71
2021/09/30 08:03:31;;;;;;;6.63;2.60;;;;;;;24.02;26.46;101936.75;1730377;80;21107;-70
2021/09/30 08:05:59;;;;;;;4.03;2.33;;;;;;;23.75;25.87;101933.70;1734792;80;22498;-70
2021/09/30 08:08:25;;;;;;;6.63;3.10;;;;;;;23.29;26.20;101929.34;1739301;80;20928;-70
2021/09/30 08:10:51;;;;;;;6.50;3.20;;;;;;;23.14;26.67;101924.96;1742323;80;20976;-70
2021/09/30 08:13:18;;;;;;;6.20;2.80;;;;;;;22.78;27.09;101927.97;1735409;82;21088;-70
2021/09/30 08:15:46;;;;;;;4.27;2.77;;;;;;;22.88;26.61;101931.94;1730870;80;20958;-70
2021/09/30 08:18:13;;;;;;;8.37;3.63;;;;;;;22.72;27.13;101932.03;1682297;84;21173;-70
2021/09/30 08:20:44;;;;;;;6.07;3.10;;;;;;;22.74;27.38;101920.15;1654950;84;20988;-70
2021/09/30 08:23:12;;;;;;;7.00;3.30;;;;;;;22.83;27.02;101916.66;1678434;83;21028;-70
2021/09/30 08:25:39;;;;;;;4.87;3.00;;;;;;;22.89;26.46;101922.42;1731675;81;20984;-72
2021/09/30 08:28:07;;;;;;;5.23;2.83;;;;;;;22.57;26.85;101919.12;1732385;80;21376;-71
2021/09/30 08:30:33;;;;;;;5.90;2.30;;;;;;;22.47;26.94;101914.34;1733204;82;22069;-71
2021/09/30 08:33:00;;;;;;;5.13;2.53;;;;;;;22.26;27.01;101916.09;1738157;80;21548;-72
2021/09/30 08:35:27;;;;;;;4.67;2.80;;;;;;;22.38;26.91;101912.98;1740559;81;21592;-71
2021/09/30 08:37:54;;;;;;;4.90;2.90;;;;;;;22.21;26.97;101918.09;1730090;80;20910;-69
2021/09/30 08:40:21;;;;;;;4.13;2.40;;;;;;;22.23;27.56;101902.72;1698765;82;21128;-69
2021/09/30 08:42:48;;;;;;;4.33;2.63;;;;;;;22.30;27.48;101906.64;1745085;80;21132;-69
2021/09/30 08:45:22;;;;;;;6.50;3.13;;;;;;;22.58;27.34;101894.19;1740204;80;21142;-68
2021/09/30 08:48:03;;;;;;;3.97;2.80;;;;;;;22.70;26.92;101887.59;1726562;81;21030;-69
2021/09/30 08:50:38;;;;;;;7.72;3.62;;;;;;;22.73;26.82;101894.61;1700064;82;21063;-68
2021/09/30 08:53:03;;;;;;;4.80;3.33;;;;;;;22.47;27.10;101896.26;1743497;80;21017;-69
2021/09/30 08:55:29;;;;;;;5.63;2.70;;;;;;;22.25;27.53;101891.89;1739564;81;21148;-72
2021/09/30 08:57:56;;;;;;;8.00;3.30;;;;;;;22.26;27.62;101884.21;1747226;80;21090;-69
2021/09/30 09:00:23;;;;;;;6.67;3.43;;;;;;;22.58;27.77;101891.00;1739368;80;20988;-71
2021/09/30 09:02:51;;;;;;;9.43;3.47;;;;;;;22.81;27.53;101889.50;1739799;81;21027;-69
2021/09/30 09:05:19;;;;;;;5.80;3.83;;;;;;;23.05;27.45;101881.92;1702491;82;21513;-69
2021/09/30 09:08:01;;;;;;;4.77;3.20;;;;;;;23.33;27.29;101877.82;1718386;80;22297;-68
2021/09/30 09:10:37;;;;;;;5.63;3.00;;;;;;;23.47;26.48;101873.92;1703173;83;21514;-69
2021/09/30 09:13:15;;;;;;;9.70;4.27;;;;;;;23.23;26.75;101880.25;1715740;83;21007;-70
2021/09/30 09:15:58;;;;;;;7.10;3.60;;;;;;;23.06;26.95;101882.20;1700501;83;21532;-69
2021/09/30 09:18:34;;;;;;;7.40;4.17;;;;;;;23.06;26.73;101884.86;1711756;83;21006;-67
2021/09/30 09:21:07;;;;;;;5.77;3.70;;;;;;;22.97;26.66;101874.79;1701834;83;20959;-66
2021/09/30 09:23:41;;;;;;;5.77;3.53;;;;;;;22.96;26.73;101871.33;1698919;83;21595;-72
2021/09/30 09:26:16;;;;;;;5.67;3.57;;;;;;;22.92;26.66;101868.83;1710466;81;22309;-67
2021/09/30 09:29:13;;;;;;;5.50;3.33;;;;;;;22.97;26.73;101865.48;1707988;81;21035;-70
2021/09/30 09:31:46;;;;;;;5.40;3.43;;;;;;;22.95;26.72;101869.68;1700470;82;21078;-67
2021/09/30 09:34:27;;;;;;;5.43;3.30;;;;;;;22.73;26.90;101865.86;1707264;83;21833;-66
2021/09/30 09:37:15;;;;;;;5.07;2.90;;;;;;;22.70;27.06;101863.16;1709216;83;20879;-67
2021/09/30 09:39:42;;;;;;;6.53;3.00;;;;;;;22.93;26.92;101866.97;1714910;82;21001;-66
2021/09/30 09:42:14;;;;;;;5.40;3.50;;;;;;;22.95;27.16;101860.89;1714885;82;22364;-68
2021/09/30 09:44:58;;;;;;;4.03;2.60;;;;;;;22.84;26.68;101855.79;1704180;83;20883;-72
2021/09/30 09:47:32;;;;;;;4.90;2.80;;;;;;;23.03;26.29;101858.75;1713156;83;21164;-68
2021/09/30 09:50:20;;;;;;;4.77;2.83;;;;;;;23.00;26.27;101859.19;1713228;82;21014;-66
2021/09/30 09:52:54;;;;;;;6.40;3.53;;;;;;;23.02;26.07;101850.45;1705746;82;21005;-70
2021/09/30 09:55:32;;;;;;;3.73;2.20;;;;;;;23.04;26.31;101857.70;1704379;83;21535;-67
2021/09/30 09:58:06;;;;;;;4.10;2.10;;;;;;;23.06;26.12;101847.63;1713725;82;21002;-67
2021/09/30 10:00:38;;;;;;;3.50;2.20;;;;;;;23.21;25.93;101851.72;1712787;82;21820;-72
2021/09/30 10:03:26;;;;;;;6.28;2.42;;;;;;;23.36;25.67;101842.78;1714842;82;21683;-68
2021/09/30 10:05:50;;;;;;;4.80;2.40;;;;;;;23.45;25.77;101844.57;1713087;82;21070;-68
2021/09/30 10:08:17;;;;;;;4.23;2.47;;;;;;;23.43;26.31;101846.14;1713785;82;20971;-71
2021/09/30 10:10:46;;;;;;;5.27;2.53;;;;;;;23.60;25.49;101836.14;1713827;83;21058;-69
2021/09/30 10:13:13;;;;;;;4.47;2.53;;;;;;;23.47;25.35;101832.66;1714065;83;21149;-70
2021/09/30 10:15:41;;;;;;;5.17;2.20;;;;;;;23.45;25.34;101828.11;1710539;82;21002;-69
2021/09/30 10:18:09;;;;;;;3.73;2.20;;;;;;;23.46;25.10;101829.72;1711804;83;21042;-68
2021/09/30 10:20:40;;;;;;;3.33;1.77;;;;;;;23.27;25.19;101829.53;1702935;83;21516;-68
2021/09/30 10:23:10;;;;;;;6.50;2.67;;;;;;;23.53;25.27;101830.42;1707095;83;21021;-72
2021/09/30 10:25:40;;;;;;;3.60;2.47;;;;;;;23.90;25.34;101824.86;1706346;83;21090;-69
2021/09/30 10:28:08;;;;;;;;;;;;;;;24.34;24.49;101810.59;1709841;83;21031;-74
2021/09/30 10:30:39;;;;;;;3.30;2.03;;;;;;;24.56;23.82;101815.30;1714230;82;20114;-69
2021/09/30 10:33:11;;;;;;;3.83;2.30;;;;;;;24.41;23.65;101811.29;1696852;83;21576;-73
2021/09/30 10:35:41;;;;;;;4.35;2.33;;;;;;;24.27;24.04;101815.23;1691771;83;21559;-68
2021/09/30 10:38:28;;;;;;;3.40;1.73;;;;;;;24.15;24.12;101824.59;1677388;83;21814;-73
2021/09/30 10:41:13;;;;;;;4.13;2.07;;;;;;;24.20;23.53;101822.03;1713082;82;20983;-72
2021/09/30 10:43:47;;;;;;;4.73;1.90;;;;;;;24.21;23.74;101824.20;1704610;83;20970;-74
2021/09/30 10:46:34;;;;;;;3.30;1.90;;;;;;;24.15;23.88;101813.14;1710353;83;21054;-67
2021/09/30 10:49:06;;;;;;;2.50;1.70;;;;;;;24.10;24.26;101809.05;1682168;83;20999;-68
2021/09/30 10:51:33;;;;;;;3.27;1.60;;;;;;;24.12;23.61;101804.28;1681951;83;21804;-69
2021/09/30 10:53:59;;;;;;;3.83;1.70;;;;;;;24.04;23.77;101804.92;1705678;82;21049;-67
2021/09/30 10:56:39;;;;;;;7.13;2.53;;;;;;;24.05;24.35;101805.73;1711387;82;21591;-66
2021/09/30 10:59:19;;;;;;;3.43;2.10;;;;;;;24.22;24.12;101806.63;1712944;83;21050;-73
2021/09/30 11:01:56;;;;;;;3.57;1.97;;;;;;;24.37;23.70;101799.45;1699877;82;21093;-69
2021/09/30 11:04:23;;;;;;;3.43;2.07;;;;;;;24.48;23.67;101795.97;1712216;83;21134;-66
2021/09/30 11:07:19;;;;;;;2.97;2.00;;;;;;;24.50;23.02;101800.52;1702650;82;20951;-72
2021/09/30 11:10:17;;;;;;;2.80;1.80;;;;;;;24.67;23.16;101787.25;1705928;82;21457;-67
2021/09/30 11:13:17;;;;;;;3.52;1.72;;;;;;;24.42;23.30;101792.91;1711405;83;20986;-74
2021/09/30 11:16:20;;;;;;;3.90;2.00;;;;;;;24.51;23.64;101788.03;1709864;82;21000;-74
2021/09/30 11:18:58;;;;;;;4.93;2.20;;;;;;;24.67;23.56;101796.58;1710427;82;20875;-69
2021/09/30 11:21:35;;;;;;;3.50;1.80;;;;;;;24.80;23.16;101786.13;1705728;83;21604;-70
2021/09/30 11:24:21;;;;;;;2.83;1.80;;;;;;;24.57;23.48;101793.72;1713453;82;20970;-68
2021/09/30 11:26:54;;;;;;;4.00;2.10;;;;;;;24.42;23.29;101801.44;1698776;82;20900;-65
2021/09/30 11:29:28;;;;;;;2.30;1.50;;;;;;;24.21;23.08;101788.22;1712903;82;21077;-71
2021/09/30 11:32:04;;;;;;;4.87;1.83;;;;;;;24.06;23.13;101791.91;1708890;83;21058;-66
2021/09/30 11:34:34;;;;;;;2.63;1.70;;;;;;;24.01;23.19;101794.73;1702141;83;20994;-68
2021/09/30 11:37:35;;;;;;;2.73;1.97;;;;;;;23.85;23.02;101783.48;1707676;83;20883;-66
2021/09/30 11:40:00;;;;;;;4.73;1.90;;;;;;;23.81;23.44;101785.00;1698117;83;21415;-66
2021/09/30 11:42:42;;;;;;;2.90;1.70;;;;;;;24.00;23.77;101782.47;1702212;82;21046;-65
2021/09/30 11:45:21;;;;;;;2.57;1.60;;;;;;;24.12;23.67;101770.45;1700571;83;22318;-71
2021/09/30 11:47:48;;;;;;;2.60;1.83;;;;;;;24.12;23.83;101778.44;1690209;83;21449;-68
2021/09/30 11:50:25;;;;;;;3.10;2.00;;;;;;;24.14;23.92;101775.55;1690731;83;21024;-66
2021/09/30 11:53:01;;;;;;;3.10;2.00;;;;;;;24.24;23.40;101763.74;1696256;83;22160;-65
2021/09/30 11:55:28;;;;;;;2.60;1.60;;;;;;;24.09;23.25;101756.27;1713391;82;20991;-71
2021/09/30 11:58:01;;;;;;;2.80;1.77;;;;;;;23.65;23.27;101765.20;1713213;82;21139;-75
2021/09/30 12:00:28;;;;;;;2.63;1.70;;;;;;;23.17;24.09;101770.75;1705462;83;21042;-67
2021/09/30 12:03:04;;;;;;;4.40;1.80;;;;;;;23.12;24.43;101769.30;1714804;83;20975;-67
2021/09/30 12:05:35;;;;;;;3.53;1.87;;;;;;;23.32;24.28;101756.47;1713788;82;21517;-67
2021/09/30 12:08:03;;;;;;;3.60;2.20;;;;;;;23.42;24.41;101756.70;1696672;83;28046;-67
2021/09/30 12:10:33;;;;;;;2.70;1.63;;;;;;;23.39;24.47;101760.35;1699179;83;21166;-68
2021/09/30 12:13:00;;;;;;;2.77;1.93;;;;;;;23.18;24.68;101756.40;1706648;81;21015;-67
2021/09/30 12:15:26;;;;;;;4.03;2.37;;;;;;;23.16;24.55;101753.98;1701461;83;20887;-71
2021/09/30 12:17:55;;;;;;;3.40;1.67;;;;;;;23.09;25.00;101749.28;1701310;82;21001;-69
2021/09/30 12:20:22;;;;;;;5.70;3.30;;;;;;;23.27;24.70;101749.72;1705808;83;20974;-67
2021/09/30 12:22:53;;;;;;;2.77;1.80;;;;;;;22.93;24.55;101756.09;1705754;83;21159;-68
2021/09/30 12:25:26;;;;;;;5.30;2.10;;;;;;;22.92;24.31;101756.30;1715497;83;21010;-68
2021/09/30 12:27:58;;;;;;;3.30;2.03;;;;;;;22.83;24.58;101755.80;1702273;83;21101;-72
2021/09/30 12:30:27;;;;;;;2.30;1.50;;;;;;;22.89;24.50;101760.22;1711797;83;21261;-69
2021/09/30 12:33:03;;;;;;;3.08;1.90;;;;;;;22.89;24.74;101762.07;1696218;83;21003;-68
2021/09/30 12:35:33;;;;;;;2.73;1.77;;;;;;;22.80;25.18;101757.05;1711533;83;22393;-73
2021/09/30 12:38:03;;;;;;;3.40;2.23;;;;;;;22.92;25.17;101758.96;1705635;83;20905;-67
2021/09/30 12:40:38;;;;;;;4.33;1.83;;;;;;;22.89;25.39;101757.56;1713337;83;20998;-68
2021/09/30 12:43:09;;;;;;;3.50;1.97;;;;;;;22.96;25.32;101745.53;1705250;82;20984;-69
2021/09/30 12:45:47;;;;;;;5.40;2.30;;;;;;;22.81;25.37;101746.73;1712795;83;21089;-67
2021/09/30 12:48:16;;;;;;;3.57;1.83;;;;;;;22.81;25.50;101745.93;1701991;83;21753;-70
2021/09/30 12:50:55;;;;;;;2.87;1.90;;;;;;;22.61;25.80;101748.86;1701260;83;20983;-72
2021/09/30 12:53:22;;;;;;;4.63;1.73;;;;;;;22.37;25.57;101742.66;1704780;83;20957;-68
2021/09/30 12:55:51;;;;;;;3.10;2.03;;;;;;;22.32;25.70;101733.24;1701488;83;21140;-67
2021/09/30 12:58:38;;;;;;;5.53;2.10;;;;;;;22.38;25.86;101735.50;1713654;82;20879;-68
2021/09/30 13:01:36;;;;;;;3.30;1.83;;;;;;;22.28;25.99;101743.50;1713301;82;21208;-69
2021/09/30 13:04:13;;;;;;;3.43;2.17;;;;;;;22.30;25.71;101740.61;1710528;81;20935;-67
2021/09/30 13:06:44;;;;;;;4.63;2.30;;;;;;;22.25;25.55;101737.30;1699904;83;20988;-67
2021/09/30 13:09:26;;;;;;;;;;;;;;;22.14;26.09;101738.58;1707972;82;21533;-67
2021/09/30 13:11:55;;;;;;;4.22;2.87;;;;;;;21.91;26.53;101735.26;1705801;83;20143;-68
2021/09/30 13:14:53;;;;;;;3.77;2.50;;;;;;;22.05;26.06;101734.87;1805886;78;22356;-67
2021/09/30 13:17:28;;;;;;;3.67;2.13;;;;;;;22.08;25.75;101735.73;1781993;80;21101;-68
2021/09/30 13:20:04;;;;;;;3.17;2.10;;;;;;;21.86;26.04;101733.27;1783791;80;21025;-68
2021/09/30 13:22:35;;;;;;;3.73;2.30;;;;;;;21.73;26.71;101730.75;1782368;80;21040;-69
2021/09/30 13:25:12;;;;;;;4.30;2.25;;;;;;;21.97;26.58;101730.37;1783796;80;20896;-68
2021/09/30 13:27:41;;;;;;;3.23;1.93;;;;;;;22.10;26.64;101726.23;1760393;80;20915;-71
2021/09/30 13:30:11;;;;;;;5.83;2.63;;;;;;;21.97;26.29;101723.23;1779050;80;20935;-69
2021/09/30 13:32:40;;;;;;;5.20;2.37;;;;;;;21.98;25.94;101730.69;1765217;80;20971;-75
2021/09/30 13:35:08;;;;;;;4.13;2.10;;;;;;;21.81;26.16;101735.77;1772850;80;21468;-73
2021/09/30 13:37:35;;;;;;;5.80;2.77;;;;;;;21.75;26.03;101732.69;1768224;80;20967;-67
2021/09/30 13:40:01;;;;;;;4.60;2.23;;;;;;;21.76;26.20;101735.11;1778460;80;21529;-66
2021/09/30 13:42:31;;;;;;;4.43;2.40;;;;;;;21.76;25.96;101734.30;1780490;80;21026;-71
2021/09/30 13:45:00;;;;;;;4.77;2.40;;;;;;;21.40;26.06;101737.20;1783370;80;21968;-74
2021/09/30 13:47:28;;;;;;;2.70;1.77;;;;;;;21.25;26.29;101736.70;1770806;80;21022;-66
2021/09/30 13:49:56;;;;;;;4.50;2.60;;;;;;;21.18;26.68;101730.67;1783374;80;21538;-66
2021/09/30 13:52:23;;;;;;;3.27;1.90;;;;;;;21.10;26.79;101731.72;1769361;80;20987;-78
2021/09/30 13:54:50;;;;;;;2.70;1.70;;;;;;;21.00;26.47;101730.90;1768759;79;21059;-66
2021/09/30 13:57:16;;;;;;;4.57;1.90;;;;;;;21.06;26.37;101730.53;1782136;80;21195;-66
2021/09/30 13:59:45;;;;;;;3.87;2.33;;;;;;;21.06;26.37;101730.53;1770779;80;21010;-66
2021/09/30 14:02:11;;;;;;;4.50;1.90;;;;;;;20.97;26.21;101731.84;1771218;80;20892;-76
2021/09/30 14:04:38;;;;;;;5.33;2.03;;;;;;;20.88;26.16;101729.47;1772332;80;21477;-65
2021/09/30 14:07:06;;;;;;;3.07;1.97;;;;;;;20.70;26.63;101732.03;1764848;80;21026;-77
2021/09/30 14:09:33;;;;;;;5.13;2.13;;;;;;;20.34;27.14;101733.45;1773821;80;21143;-64
2021/09/30 14:12:02;;;;;;;3.87;2.23;;;;;;;20.28;27.29;101739.58;1780762;80;21524;-66
2021/09/30 14:14:30;;;;;;;3.43;1.90;;;;;;;20.11;27.49;101740.55;1760717;80;21003;-66
2021/09/30 14:16:57;;;;;;;4.43;2.27;;;;;;;19.83;27.70;101737.41;1755133;80;21493;-78